Estación Meteorológica Peña el Pijo (Robertgarden) [ 09/23/17 05:48:36 CEST ]

Fecha Hora Presion(HPa) Temp (°C) Humedad % Rocio (°C) Viento ( m/s) Direccion Lluvia 1Hora(mm) Lluvia 24H(mm) LLuvia Total(mm)
2017-Jul-06 01:01:49 1012.800 18.2 79 14.5       2.59 1430.19
2017-Jul-06 02:01:44 1012.200 18.6 78 14.7       2.59 1430.19
2017-Jul-06 03:01:27 1011.800 18.4 77 14.3       2.59 1430.19
2017-Jul-06 04:01:30 1012.700 18.4 75 13.9       2.59 1430.19
2017-Jul-06 05:01:30 1011.800 17.9 76 13.6       2.59 1430.19
2017-Jul-06 06:01:38 1011.500 17.6 78 13.7       2.59 1430.19
2017-Jul-06 07:01:43 1011.700 17.4 80 13.9       2.59 1430.19
2017-Jul-06 08:01:42 1011.000 17.8 80 14.3 2.0 S   2.59 1430.19
2017-Jul-06 09:01:53 1011.500 19.9 73 14.9       2.59 1430.19
2017-Jul-06 10:01:43 1012.800 20.6 64 13.5       2.59 1430.19
2017-Jul-06 11:01:56 1012.500 20.2 63 12.9       2.59 1430.19
2017-Jul-06 12:01:41 1012.800 21.3 63 14.0       2.59 1430.19
2017-Jul-06 13:01:55 1011.900 25.2 50 14.1       2.59 1430.19
2017-Jul-06 14:01:54 1011.700 29.4 36 12.7       2.59 1430.19
2017-Jul-06 15:01:42 1011.800 25.4 41 11.2 1.4 ESE   2.59 1430.19
2017-Jul-06 16:01:43 1011.400 27.3 41 12.9       2.59 1430.19
2017-Jul-06 17:01:55 1010.700 25.9 44 12.7 2.4 NNW   2.59 1430.19
2017-Jul-06 18:01:40 1010.300 26.3 44 13.0       2.59 1430.19
2017-Jul-06 19:01:58 1010.200 26.1 43 12.5       2.59 1430.19
2017-Jul-06 20:01:49 1010.500 25.9 41 11.6         1430.19
2017-Jul-06 21:01:37 1011.100 23.9 44 10.9         1430.19
2017-Jul-06 22:01:38 1011.400 22.1 50 11.2         1430.19
2017-Jul-06 23:01:53 1011.600 21.6 50 10.7         1430.19

Temperatura Máxima:29°    Temperatura Mínima:17°
Presión Máxima:1012.800 Hpa    Presión Mínima:1010.200 Hpa


Volver